• Join FlightAware (Why Join?)
  • Login
  • US Flag 
05:44PM EDT


 

Airport Tracker/Info


-or-


 

Live Flight TrackerFlight Track Log ✈ N36276 ✈ 05-May-2012 ✈ KGRB - KUES

Flight Track Log - Related Links

Times and Time Zones

All times are in EDT time to prevent confusion due to time zone crossing. See the N36276 flight status page for this flight to view local times or setup timezone preferences in your user account.

Time Position Orientation Groundspeed Altitude Reporting Facility
EDT Latitude Longitude Course Direction KTS MPH feet Rate Location/Type
04:03PM 44.3771 -88.1391 188° South  Level FlightAware Approximate
04:04PM 44.3577 -88.1407 188° South  Level FlightAware Approximate
04:05PM 44.3399 -88.1345 192° South  Level FlightAware Approximate
04:06PM 44.3205 -88.1363 194° South  Level FlightAware Approximate
04:07PM 44.3010 -88.1381 197° South  Level FlightAware Approximate
04:08PM 44.2816 -88.1399 202° Southwest  Level FlightAware Approximate
04:09PM 44.2622 -88.1417 212° Southwest  Level FlightAware Approximate
04:10PM 44.2333 -88.1667 185° South 96 110 3,800  Level KMKE
04:15PM 44.0833 -88.1833 180° South 100 115 4,000  Climbing KMKE
04:16PM 44.0667 -88.1833 180° South 98 113 3,900 -60 Descending KMKE
04:17PM 44.0333 -88.1833 200° South 101 116 3,900  Level KMKE
04:18PM 44.0000 -88.2000 180° South 101 116 4,000  Climbing KMKE
04:19PM 43.9833 -88.2000 180° South 101 116 4,000  Level KMKE
04:20PM 43.9500 -88.2000 180° South 100 115 4,000  Level KMKE
04:21PM 43.9167 -88.2000 200° South 101 116 4,000  Level KMKE
04:22PM 43.8833 -88.2167 144° Southeast 101 116 4,000  Level KMKE
04:23PM 43.8667 -88.2000 180° South 103 119 4,000  Level KMKE
04:24PM 43.8333 -88.2000 200° South 104 120 4,000  Level KMKE
04:25PM 43.8000 -88.2167 180° South 105 121 4,000  Level KMKE
04:26PM 43.7833 -88.2167 180° South 102 117 4,000  Level KMKE
04:27PM 43.7500 -88.2167 180° South 104 120 4,000  Level KMKE
04:28PM 43.7167 -88.2167 180° South 100 115 4,000  Level KMKE
04:29PM 43.7000 -88.2167 180° South 100 115 4,000  Level KMKE
04:30PM 43.6667 -88.2167 180° South 110 127 4,000  Level KMKE
04:31PM 43.6333 -88.2167 180° South 102 117 4,000  Level KMKE
04:32PM 43.6167 -88.2167 180° South 111 128 4,000  Level KMKE
04:33PM 43.5833 -88.2167 200° South 105 121 4,000  Level KMKE
04:34PM 43.5500 -88.2333 180° South 104 120 4,000  Level KMKE
04:35PM 43.5167 -88.2333 180° South 105 121 4,000  Level KMKE
04:36PM 43.5000 -88.2333 180° South 104 120 4,000  Level KMKE
04:37PM 43.4667 -88.2333 200° South 105 121 4,000 -60 Level KMKE
04:38PM 43.4333 -88.2500 180° South 105 121 3,900 -60 Descending KMKE
04:39PM 43.4000 -88.2500 180° South 105 121 3,900  Level KMKE
04:40PM 43.3833 -88.2500 180° South 104 120 4,000  Climbing KMKE
04:41PM 43.3500 -88.2500 180° South 104 120 4,000  Level KMKE
04:42PM 43.3167 -88.2500 216° Southwest 103 119 4,000 -120 Level KMKE
04:43PM 43.3000 -88.2667 180° South 104 120 3,800 -360 Descending KMKE
04:44PM 43.2667 -88.2667 236° Southwest 116 133 3,300 -480 Descending KMKE
04:45PM 43.2500 -88.3000 216° Southwest 109 125 2,900 -240 Descending KMKE
04:46PM 43.2167 -88.3333 236° Southwest 109 125 2,900  Level KMKE
04:47PM 43.2000 -88.3667 236° Southwest 106 122 2,900  Level KMKE
04:48PM 43.1833 -88.4000 200° South 103 119 3,000  Climbing KMKE
04:49PM 43.1500 -88.4167 216° Southwest 100 115 3,000  Level KMKE
04:50PM 43.1333 -88.4333 180° South 104 120 3,000  Level KMKE
04:51PM 43.1000 -88.4333 180° South 105 121 3,000  Level KMKE
04:52PM 43.0833 -88.4333 124° Southeast 102 117 3,000  Level KMKE
04:53PM 43.0667 -88.4000 90° East 99 114 3,000 -120 Level KMKE
04:54PM 43.0667 -88.3667 124° Southeast 94 108 2,800 -480 Descending KMKE
04:55PM 43.0500 -88.3333 90° East 93 107 2,100 -600 Descending KMKE
04:56PM 43.0500 -88.3000 90° East 90 104 1,600 -480 Descending KMKE
04:57PM 43.0500 -88.2667 113° Southeast 89 102 1,200 -420 Descending KMKE
05:05PM 42.9667 -87.9930 291° West  Level Estimated
05:06PM 43.0333 -88.2333 341° North  Level FlightAware Approximate
05:07PM 43.0595 -88.2460 161° South  Level Estimated
05:08PM 43.0333 -88.2333 341° North  Level FlightAware Approximate
05:09PM 43.0595 -88.2460 161° South  Level Estimated
05:10PM 43.0333 -88.2333 341° North  Level FlightAware Approximate
05:11PM 43.0595 -88.2460 161° South  Level Estimated
05:12PM 43.0333 -88.2333 341° North  Level FlightAware Approximate
05:13PM 43.0595 -88.2460 341° North  Level Estimated